sensor_id;sensor_type;location;lat;lon;timestamp;P1;durP1;ratioP1;P2;durP2;ratioP2
64598;SDS011;51008;51.504;11.548;2023-06-22T00:02:52;18.02;;;13.23;;
64598;SDS011;51008;51.504;11.548;2023-06-22T00:07:53;24.48;;;14.20;;
64598;SDS011;51008;51.504;11.548;2023-06-22T00:12:54;22.38;;;12.82;;
64598;SDS011;51008;51.504;11.548;2023-06-22T00:17:55;21.75;;;14.02;;
64598;SDS011;51008;51.504;11.548;2023-06-22T00:22:57;22.65;;;13.70;;
64598;SDS011;51008;51.504;11.548;2023-06-22T00:27:59;19.30;;;13.03;;
64598;SDS011;51008;51.504;11.548;2023-06-22T00:33:01;18.25;;;12.73;;
64598;SDS011;51008;51.504;11.548;2023-06-22T00:38:03;20.25;;;13.35;;
64598;SDS011;51008;51.504;11.548;2023-06-22T00:43:04;21.52;;;13.30;;
64598;SDS011;51008;51.504;11.548;2023-06-22T00:48:06;17.48;;;13.35;;
64598;SDS011;51008;51.504;11.548;2023-06-22T00:53:09;21.15;;;13.13;;
64598;SDS011;51008;51.504;11.548;2023-06-22T00:58:24;22.88;;;14.20;;
64598;SDS011;51008;51.504;11.548;2023-06-22T01:09:17;23.02;;;14.77;;
64598;SDS011;51008;51.504;11.548;2023-06-22T01:14:23;26.48;;;15.30;;
64598;SDS011;51008;51.504;11.548;2023-06-22T01:31:33;19.92;;;13.77;;
64598;SDS011;51008;51.504;11.548;2023-06-22T01:36:35;19.23;;;13.05;;
64598;SDS011;51008;51.504;11.548;2023-06-22T01:41:38;20.38;;;14.85;;
64598;SDS011;51008;51.504;11.548;2023-06-22T01:46:41;22.30;;;14.93;;
64598;SDS011;51008;51.504;11.548;2023-06-22T01:51:43;16.83;;;13.88;;
64598;SDS011;51008;51.504;11.548;2023-06-22T01:56:43;17.95;;;13.98;;
64598;SDS011;51008;51.504;11.548;2023-06-22T02:01:54;17.77;;;13.60;;
64598;SDS011;51008;51.504;11.548;2023-06-22T02:07:01;21.90;;;13.50;;
64598;SDS011;51008;51.504;11.548;2023-06-22T02:12:08;16.50;;;14.13;;
64598;SDS011;51008;51.504;11.548;2023-06-22T02:17:12;18.63;;;12.75;;
64598;SDS011;51008;51.504;11.548;2023-06-22T02:22:13;25.00;;;13.40;;
64598;SDS011;51008;51.504;11.548;2023-06-22T02:27:14;21.17;;;12.82;;
64598;SDS011;51008;51.504;11.548;2023-06-22T02:32:15;18.17;;;13.50;;
64598;SDS011;51008;51.504;11.548;2023-06-22T02:37:16;17.90;;;14.18;;
64598;SDS011;51008;51.504;11.548;2023-06-22T02:42:17;21.77;;;14.63;;
64598;SDS011;51008;51.504;11.548;2023-06-22T02:47:18;24.40;;;14.35;;
64598;SDS011;51008;51.504;11.548;2023-06-22T02:52:20;19.52;;;14.18;;
64598;SDS011;51008;51.504;11.548;2023-06-22T02:57:21;19.85;;;15.43;;
64598;SDS011;51008;51.504;11.548;2023-06-22T03:02:22;22.92;;;15.63;;
64598;SDS011;51008;51.504;11.548;2023-06-22T03:07:23;21.52;;;14.32;;
64598;SDS011;51008;51.504;11.548;2023-06-22T03:12:26;22.42;;;15.80;;
64598;SDS011;51008;51.504;11.548;2023-06-22T03:17:29;24.48;;;15.75;;
64598;SDS011;51008;51.504;11.548;2023-06-22T03:22:30;23.63;;;16.10;;
64598;SDS011;51008;51.504;11.548;2023-06-22T03:27:31;23.00;;;15.57;;
64598;SDS011;51008;51.504;11.548;2023-06-22T03:32:32;26.75;;;16.25;;
64598;SDS011;51008;51.504;11.548;2023-06-22T03:37:33;31.20;;;17.23;;
64598;SDS011;51008;51.504;11.548;2023-06-22T03:42:35;24.55;;;16.50;;
64598;SDS011;51008;51.504;11.548;2023-06-22T03:47:36;25.45;;;17.35;;
64598;SDS011;51008;51.504;11.548;2023-06-22T03:52:38;22.75;;;16.40;;
64598;SDS011;51008;51.504;11.548;2023-06-22T03:57:39;23.27;;;16.38;;
64598;SDS011;51008;51.504;11.548;2023-06-22T04:02:40;20.85;;;16.90;;
64598;SDS011;51008;51.504;11.548;2023-06-22T04:07:41;19.83;;;15.35;;
64598;SDS011;51008;51.504;11.548;2023-06-22T04:12:41;20.55;;;15.95;;
64598;SDS011;51008;51.504;11.548;2023-06-22T04:17:45;23.85;;;16.60;;
64598;SDS011;51008;51.504;11.548;2023-06-22T04:22:46;18.70;;;14.85;;
64598;SDS011;51008;51.504;11.548;2023-06-22T04:27:47;22.95;;;15.63;;
64598;SDS011;51008;51.504;11.548;2023-06-22T04:32:49;24.38;;;16.40;;
64598;SDS011;51008;51.504;11.548;2023-06-22T04:37:50;26.90;;;16.55;;
64598;SDS011;51008;51.504;11.548;2023-06-22T04:42:51;30.75;;;17.33;;
64598;SDS011;51008;51.504;11.548;2023-06-22T04:47:52;26.02;;;16.40;;
64598;SDS011;51008;51.504;11.548;2023-06-22T04:52:53;21.45;;;14.98;;
64598;SDS011;51008;51.504;11.548;2023-06-22T04:57:54;25.00;;;16.55;;
64598;SDS011;51008;51.504;11.548;2023-06-22T05:02:54;28.23;;;18.88;;
64598;SDS011;51008;51.504;11.548;2023-06-22T05:07:56;23.92;;;17.38;;
64598;SDS011;51008;51.504;11.548;2023-06-22T05:12:57;22.75;;;17.00;;
64598;SDS011;51008;51.504;11.548;2023-06-22T05:17:58;30.15;;;19.33;;
64598;SDS011;51008;51.504;11.548;2023-06-22T05:22:59;28.58;;;19.33;;
64598;SDS011;51008;51.504;11.548;2023-06-22T05:28:00;29.15;;;21.27;;
64598;SDS011;51008;51.504;11.548;2023-06-22T05:33:01;27.73;;;21.77;;
64598;SDS011;51008;51.504;11.548;2023-06-22T05:38:02;29.42;;;21.88;;
64598;SDS011;51008;51.504;11.548;2023-06-22T05:43:03;31.83;;;23.48;;
64598;SDS011;51008;51.504;11.548;2023-06-22T05:48:04;32.95;;;24.80;;
64598;SDS011;51008;51.504;11.548;2023-06-22T05:53:11;31.67;;;24.85;;
64598;SDS011;51008;51.504;11.548;2023-06-22T05:58:12;34.47;;;26.25;;
64598;SDS011;51008;51.504;11.548;2023-06-22T06:03:13;36.58;;;25.48;;
64598;SDS011;51008;51.504;11.548;2023-06-22T06:08:14;34.33;;;25.98;;
64598;SDS011;51008;51.504;11.548;2023-06-22T06:13:15;39.58;;;25.67;;
64598;SDS011;51008;51.504;11.548;2023-06-22T06:18:16;33.15;;;24.40;;
64598;SDS011;51008;51.504;11.548;2023-06-22T06:23:18;33.15;;;23.80;;
64598;SDS011;51008;51.504;11.548;2023-06-22T06:28:19;33.60;;;24.83;;
64598;SDS011;51008;51.504;11.548;2023-06-22T06:33:19;31.55;;;23.83;;
64598;SDS011;51008;51.504;11.548;2023-06-22T06:38:21;35.33;;;25.10;;
64598;SDS011;51008;51.504;11.548;2023-06-22T06:43:22;34.75;;;24.17;;
64598;SDS011;51008;51.504;11.548;2023-06-22T06:48:23;31.02;;;24.20;;
64598;SDS011;51008;51.504;11.548;2023-06-22T06:53:24;30.15;;;23.33;;
64598;SDS011;51008;51.504;11.548;2023-06-22T06:58:25;37.13;;;25.38;;
64598;SDS011;51008;51.504;11.548;2023-06-22T07:03:26;33.08;;;24.60;;
64598;SDS011;51008;51.504;11.548;2023-06-22T07:08:26;30.63;;;24.48;;
64598;SDS011;51008;51.504;11.548;2023-06-22T07:13:27;31.40;;;23.60;;
64598;SDS011;51008;51.504;11.548;2023-06-22T07:18:28;40.28;;;26.05;;
64598;SDS011;51008;51.504;11.548;2023-06-22T07:23:29;31.73;;;26.27;;
64598;SDS011;51008;51.504;11.548;2023-06-22T07:28:30;28.98;;;23.02;;
64598;SDS011;51008;51.504;11.548;2023-06-22T07:33:31;28.73;;;21.10;;
64598;SDS011;51008;51.504;11.548;2023-06-22T07:38:32;35.10;;;25.10;;
64598;SDS011;51008;51.504;11.548;2023-06-22T07:43:34;30.02;;;23.17;;
64598;SDS011;51008;51.504;11.548;2023-06-22T07:48:36;28.30;;;21.45;;
64598;SDS011;51008;51.504;11.548;2023-06-22T07:53:39;30.35;;;20.40;;
64598;SDS011;51008;51.504;11.548;2023-06-22T07:58:41;25.67;;;20.15;;
64598;SDS011;51008;51.504;11.548;2023-06-22T08:03:42;28.42;;;21.17;;
64598;SDS011;51008;51.504;11.548;2023-06-22T08:08:43;30.45;;;22.33;;
64598;SDS011;51008;51.504;11.548;2023-06-22T08:13:44;28.83;;;23.15;;
64598;SDS011;51008;51.504;11.548;2023-06-22T08:18:50;28.63;;;20.25;;
64598;SDS011;51008;51.504;11.548;2023-06-22T08:23:51;26.30;;;19.08;;
64598;SDS011;51008;51.504;11.548;2023-06-22T08:28:52;26.52;;;19.60;;
64598;SDS011;51008;51.504;11.548;2023-06-22T08:33:53;30.50;;;18.73;;
64598;SDS011;51008;51.504;11.548;2023-06-22T08:38:54;25.60;;;19.25;;
64598;SDS011;51008;51.504;11.548;2023-06-22T08:43:55;27.42;;;20.42;;
64598;SDS011;51008;51.504;11.548;2023-06-22T08:48:59;23.33;;;18.65;;
64598;SDS011;51008;51.504;11.548;2023-06-22T08:54:00;25.60;;;19.67;;
64598;SDS011;51008;51.504;11.548;2023-06-22T08:59:01;24.75;;;18.77;;
64598;SDS011;51008;51.504;11.548;2023-06-22T09:04:02;24.75;;;18.65;;
64598;SDS011;51008;51.504;11.548;2023-06-22T09:09:03;25.97;;;17.77;;
64598;SDS011;51008;51.504;11.548;2023-06-22T09:14:04;23.83;;;17.90;;
64598;SDS011;51008;51.504;11.548;2023-06-22T09:19:05;26.03;;;19.30;;
64598;SDS011;51008;51.504;11.548;2023-06-22T09:24:06;26.03;;;16.80;;
64598;SDS011;51008;51.504;11.548;2023-06-22T09:29:07;25.57;;;16.33;;
64598;SDS011;51008;51.504;11.548;2023-06-22T09:34:08;20.20;;;15.50;;
64598;SDS011;51008;51.504;11.548;2023-06-22T09:39:09;28.03;;;15.40;;
64598;SDS011;51008;51.504;11.548;2023-06-22T09:44:10;20.87;;;14.77;;
64598;SDS011;51008;51.504;11.548;2023-06-22T09:49:11;19.30;;;11.33;;
64598;SDS011;51008;51.504;11.548;2023-06-22T09:54:12;13.75;;;10.48;;
64598;SDS011;51008;51.504;11.548;2023-06-22T09:59:13;20.13;;;13.98;;
64598;SDS011;51008;51.504;11.548;2023-06-22T10:04:14;18.00;;;13.30;;
64598;SDS011;51008;51.504;11.548;2023-06-22T10:09:15;19.20;;;13.80;;
64598;SDS011;51008;51.504;11.548;2023-06-22T10:14:16;13.93;;;11.53;;
64598;SDS011;51008;51.504;11.548;2023-06-22T10:19:17;18.75;;;11.48;;
64598;SDS011;51008;51.504;11.548;2023-06-22T10:24:18;18.55;;;12.40;;
64598;SDS011;51008;51.504;11.548;2023-06-22T10:29:19;15.60;;;12.17;;
64598;SDS011;51008;51.504;11.548;2023-06-22T10:34:21;15.40;;;12.27;;
64598;SDS011;51008;51.504;11.548;2023-06-22T10:39:22;16.13;;;11.33;;
64598;SDS011;51008;51.504;11.548;2023-06-22T10:44:23;14.60;;;11.07;;
64598;SDS011;51008;51.504;11.548;2023-06-22T10:49:24;16.43;;;11.97;;
64598;SDS011;51008;51.504;11.548;2023-06-22T10:54:25;16.45;;;11.27;;
64598;SDS011;51008;51.504;11.548;2023-06-22T10:59:26;11.25;;;9.18;;
64598;SDS011;51008;51.504;11.548;2023-06-22T11:04:27;16.83;;;10.45;;
64598;SDS011;51008;51.504;11.548;2023-06-22T11:09:28;16.35;;;9.73;;
64598;SDS011;51008;51.504;11.548;2023-06-22T11:14:28;15.15;;;10.02;;
64598;SDS011;51008;51.504;11.548;2023-06-22T11:19:29;19.60;;;9.68;;
64598;SDS011;51008;51.504;11.548;2023-06-22T11:24:31;14.20;;;8.70;;
64598;SDS011;51008;51.504;11.548;2023-06-22T11:29:32;13.38;;;9.60;;
64598;SDS011;51008;51.504;11.548;2023-06-22T11:34:33;11.98;;;10.13;;
64598;SDS011;51008;51.504;11.548;2023-06-22T11:39:34;15.05;;;9.30;;
64598;SDS011;51008;51.504;11.548;2023-06-22T11:44:35;15.02;;;10.15;;
64598;SDS011;51008;51.504;11.548;2023-06-22T11:49:36;12.32;;;8.75;;
64598;SDS011;51008;51.504;11.548;2023-06-22T11:54:37;13.45;;;7.90;;
64598;SDS011;51008;51.504;11.548;2023-06-22T11:59:38;14.40;;;8.45;;
64598;SDS011;51008;51.504;11.548;2023-06-22T12:04:39;14.85;;;7.93;;
64598;SDS011;51008;51.504;11.548;2023-06-22T12:09:40;12.30;;;8.23;;
64598;SDS011;51008;51.504;11.548;2023-06-22T12:14:41;11.90;;;8.43;;
64598;SDS011;51008;51.504;11.548;2023-06-22T12:19:42;14.63;;;8.88;;
64598;SDS011;51008;51.504;11.548;2023-06-22T12:24:43;17.77;;;8.32;;
64598;SDS011;51008;51.504;11.548;2023-06-22T12:29:46;13.73;;;8.45;;
64598;SDS011;51008;51.504;11.548;2023-06-22T12:34:47;13.18;;;8.23;;
64598;SDS011;51008;51.504;11.548;2023-06-22T12:39:48;10.38;;;8.57;;
64598;SDS011;51008;51.504;11.548;2023-06-22T12:44:49;14.23;;;8.65;;
64598;SDS011;51008;51.504;11.548;2023-06-22T12:49:50;13.55;;;8.70;;
64598;SDS011;51008;51.504;11.548;2023-06-22T12:54:51;13.55;;;9.05;;
64598;SDS011;51008;51.504;11.548;2023-06-22T12:59:55;12.38;;;8.48;;
64598;SDS011;51008;51.504;11.548;2023-06-22T13:04:56;15.20;;;8.98;;
64598;SDS011;51008;51.504;11.548;2023-06-22T13:09:57;12.68;;;8.52;;
64598;SDS011;51008;51.504;11.548;2023-06-22T13:14:58;12.98;;;8.73;;
64598;SDS011;51008;51.504;11.548;2023-06-22T13:19:59;10.98;;;8.65;;
64598;SDS011;51008;51.504;11.548;2023-06-22T13:25:00;15.00;;;9.93;;
64598;SDS011;51008;51.504;11.548;2023-06-22T13:30:01;12.77;;;9.68;;
64598;SDS011;51008;51.504;11.548;2023-06-22T13:35:02;13.38;;;9.43;;
64598;SDS011;51008;51.504;11.548;2023-06-22T13:40:07;13.82;;;8.27;;
64598;SDS011;51008;51.504;11.548;2023-06-22T13:45:08;12.15;;;8.48;;
64598;SDS011;51008;51.504;11.548;2023-06-22T13:55:10;12.43;;;8.90;;
64598;SDS011;51008;51.504;11.548;2023-06-22T14:00:12;11.88;;;9.40;;
64598;SDS011;51008;51.504;11.548;2023-06-22T14:05:13;14.75;;;9.25;;
64598;SDS011;51008;51.504;11.548;2023-06-22T14:10:14;18.15;;;9.63;;
64598;SDS011;51008;51.504;11.548;2023-06-22T14:15:15;13.45;;;9.23;;
64598;SDS011;51008;51.504;11.548;2023-06-22T14:20:16;16.50;;;9.18;;
64598;SDS011;51008;51.504;11.548;2023-06-22T14:25:17;16.83;;;10.37;;
64598;SDS011;51008;51.504;11.548;2023-06-22T14:30:18;12.20;;;9.50;;
64598;SDS011;51008;51.504;11.548;2023-06-22T14:35:19;14.90;;;10.10;;
64598;SDS011;51008;51.504;11.548;2023-06-22T14:40:20;13.57;;;10.13;;
64598;SDS011;51008;51.504;11.548;2023-06-22T14:45:20;13.33;;;9.00;;
64598;SDS011;51008;51.504;11.548;2023-06-22T14:50:21;14.07;;;8.77;;
64598;SDS011;51008;51.504;11.548;2023-06-22T14:55:22;12.07;;;9.23;;
64598;SDS011;51008;51.504;11.548;2023-06-22T15:00:26;18.92;;;9.32;;
64598;SDS011;51008;51.504;11.548;2023-06-22T15:05:27;18.57;;;9.80;;
64598;SDS011;51008;51.504;11.548;2023-06-22T15:10:28;17.08;;;9.18;;
64598;SDS011;51008;51.504;11.548;2023-06-22T15:15:29;17.50;;;9.40;;
64598;SDS011;51008;51.504;11.548;2023-06-22T15:20:30;11.53;;;9.30;;
64598;SDS011;51008;51.504;11.548;2023-06-22T15:25:31;13.23;;;9.00;;
64598;SDS011;51008;51.504;11.548;2023-06-22T15:30:32;15.03;;;9.23;;
64598;SDS011;51008;51.504;11.548;2023-06-22T15:35:33;15.00;;;8.77;;
64598;SDS011;51008;51.504;11.548;2023-06-22T15:40:34;19.30;;;9.97;;
64598;SDS011;51008;51.504;11.548;2023-06-22T15:45:35;16.03;;;10.07;;
64598;SDS011;51008;51.504;11.548;2023-06-22T15:50:36;16.37;;;9.77;;
64598;SDS011;51008;51.504;11.548;2023-06-22T15:55:37;12.77;;;9.63;;
64598;SDS011;51008;51.504;11.548;2023-06-22T16:00:43;17.77;;;9.55;;
64598;SDS011;51008;51.504;11.548;2023-06-22T16:05:44;13.67;;;9.57;;
64598;SDS011;51008;51.504;11.548;2023-06-22T16:10:45;14.13;;;9.53;;
64598;SDS011;51008;51.504;11.548;2023-06-22T16:15:46;13.27;;;9.57;;
64598;SDS011;51008;51.504;11.548;2023-06-22T16:20:47;14.50;;;11.37;;
64598;SDS011;51008;51.504;11.548;2023-06-22T16:25:48;16.13;;;10.37;;
64598;SDS011;51008;51.504;11.548;2023-06-22T16:30:52;15.70;;;10.27;;
64598;SDS011;51008;51.504;11.548;2023-06-22T16:35:53;17.00;;;11.15;;
64598;SDS011;51008;51.504;11.548;2023-06-22T16:40:54;14.77;;;10.63;;
64598;SDS011;51008;51.504;11.548;2023-06-22T16:45:55;14.90;;;10.30;;
64598;SDS011;51008;51.504;11.548;2023-06-22T16:50:56;13.37;;;10.30;;
64598;SDS011;51008;51.504;11.548;2023-06-22T16:55:57;15.70;;;10.83;;
64598;SDS011;51008;51.504;11.548;2023-06-22T17:00:58;15.50;;;10.60;;
64598;SDS011;51008;51.504;11.548;2023-06-22T17:06:03;13.85;;;10.43;;
64598;SDS011;51008;51.504;11.548;2023-06-22T17:11:04;16.70;;;10.90;;
64598;SDS011;51008;51.504;11.548;2023-06-22T17:16:06;18.17;;;11.40;;
64598;SDS011;51008;51.504;11.548;2023-06-22T17:21:13;16.80;;;10.57;;
64598;SDS011;51008;51.504;11.548;2023-06-22T17:26:21;16.95;;;11.05;;
64598;SDS011;51008;51.504;11.548;2023-06-22T17:31:23;16.75;;;11.73;;
64598;SDS011;51008;51.504;11.548;2023-06-22T17:36:27;23.17;;;11.15;;
64598;SDS011;51008;51.504;11.548;2023-06-22T17:41:31;16.45;;;10.73;;
64598;SDS011;51008;51.504;11.548;2023-06-22T17:46:36;13.75;;;11.13;;
64598;SDS011;51008;51.504;11.548;2023-06-22T17:51:39;15.23;;;10.93;;
64598;SDS011;51008;51.504;11.548;2023-06-22T18:01:41;14.63;;;10.60;;
64598;SDS011;51008;51.504;11.548;2023-06-22T18:06:43;16.13;;;11.48;;
64598;SDS011;51008;51.504;11.548;2023-06-22T18:11:46;18.20;;;11.23;;
64598;SDS011;51008;51.504;11.548;2023-06-22T18:16:49;14.13;;;10.50;;
64598;SDS011;51008;51.504;11.548;2023-06-22T18:21:51;16.13;;;11.65;;
64598;SDS011;51008;51.504;11.548;2023-06-22T18:26:52;22.90;;;6.88;;
64598;SDS011;51008;51.504;11.548;2023-06-22T18:31:53;14.17;;;6.43;;
64598;SDS011;51008;51.504;11.548;2023-06-22T18:36:55;11.05;;;6.95;;
64598;SDS011;51008;51.504;11.548;2023-06-22T18:41:59;17.27;;;7.32;;
64598;SDS011;51008;51.504;11.548;2023-06-22T18:47:03;11.82;;;7.65;;
64598;SDS011;51008;51.504;11.548;2023-06-22T18:52:05;12.88;;;6.43;;
64598;SDS011;51008;51.504;11.548;2023-06-22T18:57:15;10.10;;;6.68;;
64598;SDS011;51008;51.504;11.548;2023-06-22T19:07:55;14.55;;;7.80;;
64598;SDS011;51008;51.504;11.548;2023-06-22T19:12:51;17.40;;;8.25;;
64598;SDS011;51008;51.504;11.548;2023-06-22T19:17:52;13.53;;;8.03;;
64598;SDS011;51008;51.504;11.548;2023-06-22T19:22:54;13.73;;;9.15;;
64598;SDS011;51008;51.504;11.548;2023-06-22T19:27:57;17.23;;;9.07;;
64598;SDS011;51008;51.504;11.548;2023-06-22T19:32:58;16.38;;;8.70;;
64598;SDS011;51008;51.504;11.548;2023-06-22T19:37:59;15.65;;;6.53;;
64598;SDS011;51008;51.504;11.548;2023-06-22T19:43:00;12.23;;;6.45;;
64598;SDS011;51008;51.504;11.548;2023-06-22T19:48:01;17.85;;;9.35;;
64598;SDS011;51008;51.504;11.548;2023-06-22T19:53:03;43.17;;;9.90;;
64598;SDS011;51008;51.504;11.548;2023-06-22T19:58:08;18.35;;;6.00;;
64598;SDS011;51008;51.504;11.548;2023-06-22T20:03:15;13.00;;;5.43;;
64598;SDS011;51008;51.504;11.548;2023-06-22T20:08:19;12.73;;;5.10;;
64598;SDS011;51008;51.504;11.548;2023-06-22T20:13:22;13.27;;;5.53;;
64598;SDS011;51008;51.504;11.548;2023-06-22T20:18:23;9.10;;;4.85;;
64598;SDS011;51008;51.504;11.548;2023-06-22T20:23:27;9.35;;;3.13;;
64598;SDS011;51008;51.504;11.548;2023-06-22T20:34:04;8.45;;;3.28;;
64598;SDS011;51008;51.504;11.548;2023-06-22T20:39:05;7.22;;;3.30;;
64598;SDS011;51008;51.504;11.548;2023-06-22T20:44:06;7.13;;;2.95;;
64598;SDS011;51008;51.504;11.548;2023-06-22T20:49:07;6.85;;;3.35;;
64598;SDS011;51008;51.504;11.548;2023-06-22T20:54:08;5.72;;;2.97;;
64598;SDS011;51008;51.504;11.548;2023-06-22T20:59:12;9.85;;;3.70;;
64598;SDS011;51008;51.504;11.548;2023-06-22T21:04:14;4.25;;;2.80;;
64598;SDS011;51008;51.504;11.548;2023-06-22T21:09:14;8.30;;;3.10;;
64598;SDS011;51008;51.504;11.548;2023-06-22T21:14:17;6.27;;;3.50;;
64598;SDS011;51008;51.504;11.548;2023-06-22T21:19:18;7.70;;;4.20;;
64598;SDS011;51008;51.504;11.548;2023-06-22T21:24:19;9.55;;;3.92;;
64598;SDS011;51008;51.504;11.548;2023-06-22T21:29:20;8.38;;;4.70;;
64598;SDS011;51008;51.504;11.548;2023-06-22T21:34:21;8.95;;;4.68;;
64598;SDS011;51008;51.504;11.548;2023-06-22T21:39:23;11.88;;;4.82;;
64598;SDS011;51008;51.504;11.548;2023-06-22T21:44:23;9.18;;;4.00;;
64598;SDS011;51008;51.504;11.548;2023-06-22T21:49:24;5.82;;;3.97;;
64598;SDS011;51008;51.504;11.548;2023-06-22T21:54:25;8.85;;;4.10;;
64598;SDS011;51008;51.504;11.548;2023-06-22T21:59:26;8.32;;;3.90;;
64598;SDS011;51008;51.504;11.548;2023-06-22T22:04:28;10.50;;;4.60;;
64598;SDS011;51008;51.504;11.548;2023-06-22T22:09:29;5.43;;;3.50;;
64598;SDS011;51008;51.504;11.548;2023-06-22T22:14:30;8.25;;;3.13;;
64598;SDS011;51008;51.504;11.548;2023-06-22T22:19:31;7.95;;;3.40;;
64598;SDS011;51008;51.504;11.548;2023-06-22T22:24:32;5.57;;;3.50;;
64598;SDS011;51008;51.504;11.548;2023-06-22T22:29:33;6.13;;;2.90;;
64598;SDS011;51008;51.504;11.548;2023-06-22T22:34:34;8.82;;;3.83;;
64598;SDS011;51008;51.504;11.548;2023-06-22T22:39:35;12.68;;;3.17;;
64598;SDS011;51008;51.504;11.548;2023-06-22T22:44:37;11.23;;;3.13;;
64598;SDS011;51008;51.504;11.548;2023-06-22T22:49:38;5.95;;;2.95;;
64598;SDS011;51008;51.504;11.548;2023-06-22T22:54:39;6.45;;;3.15;;
64598;SDS011;51008;51.504;11.548;2023-06-22T22:59:40;7.45;;;3.38;;
64598;SDS011;51008;51.504;11.548;2023-06-22T23:04:41;9.40;;;3.40;;
64598;SDS011;51008;51.504;11.548;2023-06-22T23:09:42;8.07;;;3.65;;
64598;SDS011;51008;51.504;11.548;2023-06-22T23:14:46;6.38;;;2.80;;
64598;SDS011;51008;51.504;11.548;2023-06-22T23:19:47;8.43;;;3.47;;
64598;SDS011;51008;51.504;11.548;2023-06-22T23:24:48;6.22;;;3.38;;
64598;SDS011;51008;51.504;11.548;2023-06-22T23:29:49;8.52;;;3.70;;
64598;SDS011;51008;51.504;11.548;2023-06-22T23:34:50;9.55;;;3.42;;
64598;SDS011;51008;51.504;11.548;2023-06-22T23:39:50;6.78;;;3.40;;
64598;SDS011;51008;51.504;11.548;2023-06-22T23:44:51;7.60;;;3.50;;
64598;SDS011;51008;51.504;11.548;2023-06-22T23:49:52;8.48;;;3.80;;
64598;SDS011;51008;51.504;11.548;2023-06-22T23:54:53;4.88;;;3.20;;
64598;SDS011;51008;51.504;11.548;2023-06-22T23:59:54;11.88;;;3.92;;
